Time;durP1;ratioP1;P1;durP2;ratioP2;P2;SDS_P1;SDS_P2;PMS_P1;PMS_P2;Temp;Humidity;BMP_temperature;BMP_pressure;BME280_temperature;BME280_humidity;BME280_pressure;Samples;Min_cycle;Max_cycle;Signal;HPM_P1;HPM_P2
2021/08/16 00:00:19;;;;;;;4.13;1.88;;;27.90;99.90;;;;;;4161808;28;20730;-67
2021/08/16 00:02:31;;;;;;;4.80;2.30;;;27.90;99.90;;;;;;4159871;28;20041;-66
2021/08/16 00:04:39;;;;;;;3.72;1.90;;;27.90;99.90;;;;;;4163412;28;20060;-67
2021/08/16 00:06:46;;;;;;;3.42;2.10;;;27.90;99.90;;;;;;4161256;28;20194;-67
2021/08/16 00:08:54;;;;;;;6.07;1.88;;;28.00;99.90;;;;;;4149694;28;20049;-65
2021/08/16 00:11:03;;;;;;;6.65;1.98;;;27.90;99.90;;;;;;4157514;28;20080;-66
2021/08/16 00:13:08;;;;;;;5.53;2.20;;;28.00;99.90;;;;;;4159069;28;20049;-66
2021/08/16 00:15:12;;;;;;;4.47;2.00;;;27.90;99.90;;;;;;4158034;28;20107;-66
2021/08/16 00:17:17;;;;;;;4.68;2.10;;;28.00;99.90;;;;;;4175979;28;20080;-66
2021/08/16 00:19:26;;;;;;;4.72;1.90;;;28.00;99.90;;;;;;4157439;28;20042;-67
2021/08/16 00:21:34;;;;;;;6.13;2.92;;;28.10;99.90;;;;;;4161286;28;20516;-66
2021/08/16 00:23:39;;;;;;;5.30;2.00;;;28.10;99.90;;;;;;4154291;28;20128;-65
2021/08/16 00:25:44;;;;;;;3.40;1.90;;;28.10;99.90;;;;;;4159834;28;20047;-66
2021/08/16 00:27:48;;;;;;;5.38;2.05;;;28.20;99.90;;;;;;4155489;28;20065;-65
2021/08/16 00:29:56;;;;;;;2.95;1.98;;;28.20;99.90;;;;;;4164405;28;20044;-65
2021/08/16 00:32:04;;;;;;;3.45;1.90;;;28.20;99.90;;;;;;4157242;28;20041;-67
2021/08/16 00:34:11;;;;;;;3.33;1.85;;;28.20;99.90;;;;;;4161786;28;20058;-65
2021/08/16 00:36:17;;;;;;;4.45;2.17;;;28.20;99.90;;;;;;4155817;28;20092;-65
2021/08/16 00:38:22;;;;;;;6.82;2.17;;;28.10;99.90;;;;;;4160863;28;20065;-65
2021/08/16 00:40:27;;;;;;;5.38;2.53;;;28.10;99.90;;;;;;4161609;28;20057;-64
2021/08/16 00:42:32;;;;;;;5.72;2.97;;;28.10;99.90;;;;;;4122488;28;20150;-63
2021/08/16 00:44:39;;;;;;;7.38;2.55;;;28.20;99.90;;;;;;4162749;28;20504;-66
2021/08/16 00:46:44;;;;;;;4.43;2.25;;;28.20;99.90;;;;;;4158904;28;20049;-65
2021/08/16 00:48:49;;;;;;;4.85;2.67;;;28.30;99.90;;;;;;4161331;28;20054;-65
2021/08/16 00:50:54;;;;;;;5.47;2.33;;;28.20;99.90;;;;;;4161978;28;20049;-66
2021/08/16 00:53:10;;;;;;;4.20;2.53;;;28.30;99.90;;;;;;4166156;28;20057;-68
2021/08/16 00:55:56;;;;;;;5.07;2.42;;;28.30;99.90;;;;;;4148746;28;20119;-67
2021/08/16 00:58:13;;;;;;;5.80;2.50;;;28.30;99.90;;;;;;4148044;28;20050;-66
2021/08/16 01:00:36;;;;;;;2.88;1.98;;;28.30;99.90;;;;;;4131263;28;20050;-67
2021/08/16 01:03:18;;;;;;;4.55;2.80;;;28.30;99.90;;;;;;4132942;28;20185;-66
2021/08/16 01:05:40;;;;;;;4.40;2.60;;;28.40;99.90;;;;;;4148026;28;20056;-66
2021/08/16 01:08:14;;;;;;;3.65;2.17;;;28.40;99.90;;;;;;4146124;28;20049;-66
2021/08/16 01:10:39;;;;;;;6.63;3.15;;;28.50;99.90;;;;;;4124556;28;20170;-66
2021/08/16 01:13:01;;;;;;;5.22;2.20;;;28.50;99.90;;;;;;4120909;28;20532;-66
2021/08/16 01:15:31;;;;;;;3.97;2.50;;;28.60;99.90;;;;;;4095563;28;20058;-64
2021/08/16 01:17:47;;;;;;;4.28;2.63;;;28.60;99.90;;;;;;4117965;28;20081;-68
2021/08/16 01:20:00;;;;;;;3.70;2.35;;;28.60;99.90;;;;;;4132814;28;20046;-68
2021/08/16 01:22:16;;;;;;;5.38;2.40;;;28.70;99.90;;;;;;4129378;28;20042;-65
2021/08/16 01:24:39;;;;;;;3.38;2.38;;;28.60;99.90;;;;;;4136265;28;20852;-66
2021/08/16 01:27:07;;;;;;;6.07;2.70;;;28.60;99.90;;;;;;4138491;28;20558;-68
2021/08/16 01:29:20;;;;;;;5.40;2.60;;;28.70;99.90;;;;;;4127695;28;20070;-65
2021/08/16 01:31:42;;;;;;;4.53;2.33;;;28.80;99.90;;;;;;4140780;28;20559;-69
2021/08/16 01:33:50;;;;;;;;;;;28.80;99.90;;;;;;4136548;28;20120;-67
2021/08/16 01:36:20;;;;;;;4.68;2.50;;;28.80;99.90;;;;;;4139543;28;19936;-67
2021/08/16 01:38:49;;;;;;;4.18;2.13;;;28.80;99.90;;;;;;4118648;28;20055;-66
2021/08/16 01:41:08;;;;;;;4.80;2.33;;;28.90;99.90;;;;;;4135239;28;20069;-68
2021/08/16 01:43:31;;;;;;;4.70;2.17;;;28.90;99.90;;;;;;4158133;28;20162;-68
2021/08/16 01:45:54;;;;;;;4.82;2.40;;;28.90;99.90;;;;;;4164748;28;20087;-66
2021/08/16 01:48:14;;;;;;;5.55;2.83;;;28.90;99.90;;;;;;4177527;28;20055;-66
2021/08/16 01:50:31;;;;;;;4.43;2.95;;;29.00;99.90;;;;;;4158051;28;20053;-68
2021/08/16 01:52:47;;;;;;;5.05;2.45;;;29.00;99.90;;;;;;4155038;28;20049;-67
2021/08/16 01:55:21;;;;;;;3.17;2.50;;;29.10;99.90;;;;;;4155404;28;20058;-67
2021/08/16 01:57:52;;;;;;;3.85;2.50;;;29.20;99.90;;;;;;4160255;28;20056;-69
2021/08/16 02:00:00;;;;;;;3.83;2.47;;;29.30;99.90;;;;;;4160122;28;20113;-70
2021/08/16 02:02:21;;;;;;;3.85;2.28;;;29.40;99.90;;;;;;4157385;28;20046;-65
2021/08/16 02:04:37;;;;;;;3.78;2.42;;;29.40;99.90;;;;;;4159139;28;20041;-65
2021/08/16 02:06:50;;;;;;;5.30;3.28;;;29.40;99.90;;;;;;4157718;28;20049;-66
2021/08/16 02:08:55;;;;;;;8.15;3.42;;;29.40;99.90;;;;;;4156908;28;20053;-67
2021/08/16 02:11:01;;;;;;;8.30;3.20;;;29.40;99.90;;;;;;4138173;28;20046;-65
2021/08/16 02:13:10;;;;;;;5.88;3.08;;;29.40;99.90;;;;;;4154612;28;20120;-64
2021/08/16 02:15:15;;;;;;;7.15;3.03;;;29.40;99.90;;;;;;4105238;28;20820;-66
2021/08/16 02:17:20;;;;;;;4.57;3.15;;;29.40;99.90;;;;;;4160395;28;20156;-66
2021/08/16 02:19:27;;;;;;;4.82;3.35;;;29.40;99.90;;;;;;4152820;28;20049;-65
2021/08/16 02:21:32;;;;;;;7.05;3.42;;;29.50;99.90;;;;;;4152943;28;20072;-66
2021/08/16 02:23:38;;;;;;;4.97;2.97;;;29.40;99.90;;;;;;4153652;28;20042;-66
2021/08/16 02:25:42;;;;;;;4.50;2.80;;;29.50;99.90;;;;;;4157002;28;20454;-65
2021/08/16 02:27:50;;;;;;;6.07;2.70;;;29.50;99.90;;;;;;4152609;28;20046;-66
2021/08/16 02:29:55;;;;;;;8.43;2.80;;;29.50;99.90;;;;;;4153453;28;20547;-65
2021/08/16 02:31:59;;;;;;;6.50;2.90;;;29.50;99.90;;;;;;4151223;28;20144;-66
2021/08/16 02:34:04;;;;;;;4.80;3.10;;;29.50;99.90;;;;;;4153640;28;20103;-66
2021/08/16 02:36:09;;;;;;;4.32;2.60;;;29.50;99.90;;;;;;4155786;28;20597;-65
2021/08/16 02:38:13;;;;;;;5.53;3.20;;;29.60;99.90;;;;;;4155454;28;20412;-66
2021/08/16 02:40:21;;;;;;;4.68;2.80;;;29.70;99.90;;;;;;4155435;28;20046;-65
2021/08/16 02:42:26;;;;;;;5.82;3.13;;;29.70;99.90;;;;;;4155969;28;21345;-65
2021/08/16 02:44:31;;;;;;;5.22;2.92;;;29.70;99.90;;;;;;4151955;28;20049;-66
2021/08/16 02:46:36;;;;;;;3.40;2.42;;;29.80;99.90;;;;;;4154067;28;20091;-66
2021/08/16 02:48:41;;;;;;;3.30;2.60;;;29.90;99.90;;;;;;4155780;28;20049;-66
2021/08/16 02:50:45;;;;;;;7.22;3.00;;;29.90;99.90;;;;;;4158546;28;20041;-65
2021/08/16 02:52:51;;;;;;;4.35;2.97;;;30.00;99.90;;;;;;4160993;28;20473;-65
2021/08/16 02:54:58;;;;;;;5.97;3.03;;;30.10;99.90;;;;;;4159556;28;20045;-65
2021/08/16 02:57:04;;;;;;;3.60;2.83;;;30.20;99.90;;;;;;4162449;28;20046;-66
2021/08/16 02:59:08;;;;;;;3.95;2.90;;;30.20;99.90;;;;;;4175735;28;20167;-66
2021/08/16 03:01:12;;;;;;;6.10;3.45;;;30.40;99.90;;;;;;4159776;28;20554;-66
2021/08/16 03:03:17;;;;;;;4.07;3.13;;;30.40;99.90;;;;;;4158263;28;20531;-67
2021/08/16 03:05:24;;;;;;;9.13;3.17;;;30.50;99.90;;;;;;4160441;28;20053;-66
2021/08/16 03:07:29;;;;;;;4.55;3.33;;;30.50;99.90;;;;;;4163360;28;20041;-66
2021/08/16 03:09:34;;;;;;;4.45;3.30;;;30.70;99.90;;;;;;4157244;28;20041;-65
2021/08/16 03:11:49;;;;;;;;;;;30.70;99.90;;;;;;4160775;28;20579;-66
2021/08/16 03:14:13;;;;;;;5.65;3.20;;;30.70;99.90;;;;;;4160704;28;19960;-66
2021/08/16 03:16:20;;;;;;;7.05;2.92;;;30.70;99.90;;;;;;4160028;28;20088;-66
2021/08/16 03:18:27;;;;;;;3.50;3.13;;;30.70;99.90;;;;;;4161140;28;20045;-65
2021/08/16 03:20:32;;;;;;;5.13;3.33;;;30.70;99.90;;;;;;4154246;28;20508;-65
2021/08/16 03:22:36;;;;;;;4.32;2.97;;;30.70;99.90;;;;;;4162196;28;20038;-65
2021/08/16 03:24:41;;;;;;;4.60;2.95;;;30.70;99.90;;;;;;4158417;28;20475;-66
2021/08/16 03:26:46;;;;;;;3.75;2.75;;;30.70;99.90;;;;;;4142338;28;20669;-66
2021/08/16 03:28:50;;;;;;;6.40;3.40;;;30.70;99.90;;;;;;4177078;28;20091;-64
2021/08/16 03:30:55;;;;;;;4.85;3.00;;;30.70;99.90;;;;;;4159056;28;20056;-66
2021/08/16 03:33:00;;;;;;;3.72;2.88;;;30.80;99.90;;;;;;4154680;28;20077;-67
2021/08/16 03:35:06;;;;;;;7.63;3.05;;;30.80;99.90;;;;;;4156533;28;20515;-65
2021/08/16 03:37:11;;;;;;;4.85;2.85;;;30.90;99.90;;;;;;4158280;28;20033;-65
2021/08/16 03:39:16;;;;;;;8.38;3.15;;;31.00;99.90;;;;;;4161494;28;20062;-63
2021/08/16 03:41:20;;;;;;;4.90;2.75;;;31.10;99.90;;;;;;4155061;28;20139;-64
2021/08/16 03:43:25;;;;;;;2.92;2.25;;;31.20;99.90;;;;;;4159676;28;20038;-66
2021/08/16 03:45:29;;;;;;;3.72;2.20;;;31.30;99.90;;;;;;4155259;28;20092;-66
2021/08/16 03:47:37;;;;;;;4.85;2.30;;;31.10;99.90;;;;;;4158331;28;20085;-68
2021/08/16 03:49:42;;;;;;;3.25;2.38;;;31.30;99.90;;;;;;4153282;28;20038;-67
2021/08/16 03:51:46;;;;;;;3.40;2.35;;;31.30;99.90;;;;;;4156451;28;20041;-67
2021/08/16 03:53:53;;;;;;;2.92;2.00;;;31.30;99.90;;;;;;4157368;28;20041;-68
2021/08/16 03:55:59;;;;;;;4.18;2.78;;;31.20;99.90;;;;;;4152916;28;20057;-66
2021/08/16 03:58:04;;;;;;;2.75;2.00;;;31.10;99.90;;;;;;4168071;28;20525;-66
2021/08/16 04:00:09;;;;;;;5.53;2.33;;;31.30;99.90;;;;;;4158204;28;20558;-66
2021/08/16 04:02:14;;;;;;;4.22;2.40;;;31.40;99.90;;;;;;4155739;28;20084;-66
2021/08/16 04:04:19;;;;;;;2.88;2.03;;;31.60;99.90;;;;;;4151109;28;20042;-67
2021/08/16 04:06:28;;;;;;;3.13;1.92;;;31.70;99.90;;;;;;4140423;28;20034;-67
2021/08/16 04:08:39;;;;;;;3.72;1.75;;;31.70;99.90;;;;;;4154542;28;20045;-69
2021/08/16 04:10:53;;;;;;;3.22;1.60;;;31.60;99.90;;;;;;4146842;28;20500;-69
2021/08/16 04:13:17;;;;;;;5.78;1.58;;;31.50;99.90;;;;;;4163741;28;20049;-67
2021/08/16 04:15:30;;;;;;;4.28;1.73;;;31.40;99.90;;;;;;4158606;28;20049;-67
2021/08/16 04:17:38;;;;;;;4.00;2.28;;;31.60;99.90;;;;;;4145080;28;20483;-66
2021/08/16 04:19:48;;;;;;;1.92;1.65;;;31.70;99.90;;;;;;4156610;28;20107;-68
2021/08/16 04:21:57;;;;;;;2.42;1.80;;;31.80;99.90;;;;;;4131185;28;20082;-67
2021/08/16 04:24:15;;;;;;;5.40;2.08;;;31.70;99.90;;;;;;4147213;28;20046;-68
2021/08/16 04:26:35;;;;;;;2.50;1.80;;;31.70;99.90;;;;;;4148175;28;20046;-68
2021/08/16 04:28:44;;;;;;;5.05;1.70;;;31.80;99.90;;;;;;4158803;28;20045;-70
2021/08/16 04:31:07;;;;;;;4.32;1.98;;;32.00;99.90;;;;;;4158611;28;20045;-67
2021/08/16 04:33:24;;;;;;;5.20;2.28;;;32.00;99.90;;;;;;4110823;28;20592;-67
2021/08/16 04:35:42;;;;;;;5.07;1.80;;;32.10;99.60;;;;;;4153556;28;20138;-65
2021/08/16 04:37:49;;;;;;;2.83;1.70;;;32.10;99.40;;;;;;4158549;28;20041;-66
2021/08/16 04:39:55;;;;;;;2.90;1.58;;;32.00;98.90;;;;;;4154528;28;20104;-66
2021/08/16 04:41:59;;;;;;;2.78;1.42;;;32.00;99.90;;;;;;4157888;28;20046;-64
2021/08/16 04:44:07;;;;;;;2.72;1.50;;;32.10;99.90;;;;;;4121904;28;20077;-68
2021/08/16 04:46:28;;;;;;;3.03;1.50;;;32.10;99.80;;;;;;4161071;28;20154;-68
2021/08/16 04:48:35;;;;;;;4.63;1.80;;;32.10;99.20;;;;;;4123550;28;20050;-66
2021/08/16 04:50:47;;;;;;;1.95;1.38;;;32.30;99.10;;;;;;4122415;28;20134;-67
2021/08/16 04:53:03;;;;;;;3.97;1.80;;;32.40;98.30;;;;;;4130382;28;20054;-66
2021/08/16 04:55:27;;;;;;;1.92;1.25;;;32.50;98.40;;;;;;4146841;28;20112;-67
2021/08/16 04:57:44;;;;;;;3.13;1.40;;;32.60;98.40;;;;;;4177308;28;20051;-71
2021/08/16 04:59:57;;;;;;;2.58;1.70;;;32.50;98.00;;;;;;4167813;28;20068;-71
2021/08/16 05:02:12;;;;;;;3.25;1.52;;;32.30;97.70;;;;;;4160205;28;20041;-71
2021/08/16 05:04:35;;;;;;;4.47;1.52;;;32.30;97.80;;;;;;4162789;28;20045;-69
2021/08/16 05:07:10;;;;;;;2.58;1.33;;;32.30;97.90;;;;;;4155942;28;20095;-70
2021/08/16 05:09:22;;;;;;;2.90;1.20;;;32.30;97.80;;;;;;4156242;28;20492;-68
2021/08/16 05:11:27;;;;;;;3.70;1.60;;;32.30;97.00;;;;;;4166892;28;20113;-70
2021/08/16 05:13:59;;;;;;;2.33;1.33;;;32.20;96.70;;;;;;4163007;28;20370;-69
2021/08/16 05:16:43;;;;;;;5.00;1.63;;;32.20;96.90;;;;;;4162733;28;20053;-71
2021/08/16 05:19:09;;;;;;;2.47;1.67;;;32.30;97.70;;;;;;4160490;28;20140;-71
2021/08/16 05:21:30;;;;;;;1.75;1.23;;;32.30;97.10;;;;;;4132497;28;20069;-70
2021/08/16 05:24:10;;;;;;;3.03;1.55;;;32.30;96.90;;;;;;4133181;28;20050;-69
2021/08/16 05:26:33;;;;;;;3.25;1.13;;;32.30;96.90;;;;;;4128269;28;20053;-69
2021/08/16 05:28:48;;;;;;;1.48;1.08;;;32.30;96.70;;;;;;4147345;28;20041;-69
2021/08/16 05:31:22;;;;;;;3.58;1.33;;;32.30;96.20;;;;;;4147406;28;20076;-69
2021/08/16 05:33:38;;;;;;;3.03;1.30;;;32.30;96.40;;;;;;4082591;29;20047;-69
2021/08/16 05:35:43;;;;;;;3.45;1.60;;;32.40;96.60;;;;;;4127643;28;20477;-70
2021/08/16 05:38:04;;;;;;;2.30;1.50;;;32.40;96.80;;;;;;4123789;28;20405;-69
2021/08/16 05:40:35;;;;;;;4.07;1.58;;;32.40;97.20;;;;;;4100152;28;20118;-68
2021/08/16 05:42:46;;;;;;;2.65;1.58;;;32.30;97.60;;;;;;4125144;28;20550;-69
2021/08/16 05:45:03;;;;;;;1.58;1.15;;;32.40;97.20;;;;;;4127858;28;20060;-69
2021/08/16 05:47:11;;;;;;;2.53;1.25;;;32.40;97.30;;;;;;4100165;28;20047;-69
2021/08/16 05:49:29;;;;;;;3.35;1.25;;;32.40;97.00;;;;;;4082736;29;20585;-68
2021/08/16 05:52:04;;;;;;;4.22;1.40;;;32.50;97.00;;;;;;4084742;29;20110;-70
2021/08/16 05:54:27;;;;;;;6.57;1.73;;;32.60;96.90;;;;;;4059286;29;20064;-71
2021/08/16 05:56:54;;;;;;;3.08;1.48;;;32.60;96.60;;;;;;4038008;29;20632;-71
2021/08/16 05:59:08;;;;;;;1.67;1.20;;;32.70;96.80;;;;;;4042016;29;20060;-69
2021/08/16 06:01:14;;;;;;;2.47;1.15;;;32.80;96.30;;;;;;4036598;29;20057;-68
2021/08/16 06:03:31;;;;;;;4.30;1.15;;;32.90;95.70;;;;;;4039563;29;20421;-69
2021/08/16 06:06:01;;;;;;;2.65;1.20;;;33.00;95.30;;;;;;4026520;29;20052;-69
2021/08/16 06:08:25;;;;;;;2.03;0.85;;;33.20;94.90;;;;;;4038774;29;20048;-70
2021/08/16 06:10:34;;;;;;;3.72;0.95;;;33.30;94.60;;;;;;4035637;29;20088;-70
2021/08/16 06:13:18;;;;;;;2.75;1.48;;;33.30;94.00;;;;;;4040251;29;20040;-70
2021/08/16 06:15:26;;;;;;;3.22;0.98;;;33.30;93.90;;;;;;4036628;29;20057;-69
2021/08/16 06:17:41;;;;;;;2.05;1.20;;;33.30;93.80;;;;;;4024446;29;20046;-68
2021/08/16 06:20:07;;;;;;;2.15;1.08;;;33.30;93.90;;;;;;4025871;29;20054;-70
2021/08/16 06:22:34;;;;;;;3.97;0.90;;;33.30;93.20;;;;;;4024180;29;20064;-70
2021/08/16 06:24:43;;;;;;;2.53;1.20;;;33.20;93.20;;;;;;4048024;29;20109;-69
2021/08/16 06:26:59;;;;;;;3.05;1.13;;;33.10;93.90;;;;;;4074158;29;20052;-70
2021/08/16 06:29:41;;;;;;;2.20;1.40;;;33.10;94.40;;;;;;4147655;28;20077;-69
2021/08/16 06:32:06;;;;;;;3.60;0.90;;;33.20;93.80;;;;;;4164464;28;20052;-69
2021/08/16 06:34:39;;;;;;;2.13;1.10;;;33.30;93.40;;;;;;4166590;28;20073;-70
2021/08/16 06:37:02;;;;;;;2.75;0.93;;;33.30;93.10;;;;;;4161023;28;20060;-69
2021/08/16 06:39:21;;;;;;;1.10;0.80;;;33.40;92.70;;;;;;4165189;28;20049;-69
2021/08/16 06:41:32;;;;;;;1.17;0.70;;;33.50;92.80;;;;;;4166935;28;20057;-70
2021/08/16 06:43:40;;;;;;;1.98;0.98;;;33.60;91.90;;;;;;4168364;28;20042;-70
2021/08/16 06:45:55;;;;;;;1.60;0.90;;;33.80;92.00;;;;;;4168128;28;20049;-69
2021/08/16 06:48:46;;;;;;;1.58;0.73;;;33.90;91.90;;;;;;4120954;28;20047;-71
2021/08/16 06:51:12;;;;;;;2.60;0.80;;;33.90;91.50;;;;;;4150094;28;20080;-70
2021/08/16 06:53:24;;;;;;;1.95;0.90;;;33.80;91.50;;;;;;4164622;28;20057;-69
2021/08/16 06:55:32;;;;;;;4.32;1.20;;;33.80;91.50;;;;;;4160764;28;20540;-68
2021/08/16 06:57:42;;;;;;;2.30;0.82;;;33.90;91.50;;;;;;4170554;28;20045;-68
2021/08/16 07:00:01;;;;;;;1.70;0.98;;;33.80;91.50;;;;;;4169015;28;20136;-70
2021/08/16 07:02:09;;;;;;;1.67;0.90;;;33.90;91.50;;;;;;4153890;28;20096;-71
2021/08/16 07:04:21;;;;;;;2.05;1.00;;;34.10;91.20;;;;;;4161426;28;20074;-69
2021/08/16 07:06:41;;;;;;;2.72;0.90;;;34.10;91.10;;;;;;4167212;28;20049;-70
2021/08/16 07:08:59;;;;;;;1.83;0.93;;;34.30;91.70;;;;;;4162979;28;20111;-70
2021/08/16 07:11:33;;;;;;;2.15;0.73;;;34.10;89.30;;;;;;4162793;28;20050;-70
2021/08/16 07:13:50;;;;;;;2.22;0.80;;;33.90;90.20;;;;;;4164743;28;20052;-70
2021/08/16 07:15:59;;;;;;;1.30;0.90;;;33.80;90.80;;;;;;4166514;28;20053;-70
2021/08/16 07:18:36;;;;;;;3.35;0.80;;;33.60;91.10;;;;;;4159443;28;20103;-70
2021/08/16 07:23:42;;;;;;;2.60;1.15;;;33.50;91.60;;;;;;4122899;28;20043;-74
2021/08/16 07:25:58;;;;;;;2.40;1.27;;;33.80;91.10;;;;;;4160745;28;20049;-69
2021/08/16 07:28:03;;;;;;;3.00;0.80;;;34.00;90.80;;;;;;4168013;28;20072;-71
2021/08/16 07:30:09;;;;;;;2.30;0.85;;;34.20;90.40;;;;;;4166068;28;20145;-70
2021/08/16 07:32:16;;;;;;;2.70;1.15;;;34.20;90.40;;;;;;4161213;28;20064;-72
2021/08/16 07:34:22;;;;;;;1.95;1.00;;;34.20;90.10;;;;;;4167869;28;20584;-70
2021/08/16 07:36:35;;;;;;;1.33;0.57;;;34.10;90.90;;;;;;4164024;28;20052;-73
2021/08/16 07:38:45;;;;;;;1.85;0.80;;;34.20;91.00;;;;;;4165748;28;20570;-72
2021/08/16 07:40:50;;;;;;;2.20;0.90;;;34.40;90.00;;;;;;4168165;28;20160;-71
2021/08/16 07:43:29;;;;;;;2.00;0.82;;;34.40;90.40;;;;;;4166005;28;20416;-71
2021/08/16 07:45:40;;;;;;;2.42;0.77;;;34.30;90.30;;;;;;4163765;28;20080;-70
2021/08/16 07:48:19;;;;;;;2.08;0.63;;;34.10;89.80;;;;;;4165365;28;20185;-71
2021/08/16 07:50:26;;;;;;;2.00;0.60;;;34.00;90.10;;;;;;4165212;28;20491;-74
2021/08/16 07:52:42;;;;;;;2.22;0.60;;;34.20;90.00;;;;;;4131500;28;20038;-69
2021/08/16 07:54:57;;;;;;;2.58;1.20;;;34.20;88.90;;;;;;4165399;28;20068;-71
2021/08/16 07:57:26;;;;;;;2.70;0.80;;;34.20;89.20;;;;;;4160557;28;20057;-71
2021/08/16 07:59:56;;;;;;;;;;;;;;;;;;;;;
2021/08/16 08:02:28;;;;;;;3.00;1.15;;;34.40;88.50;;;;;;4160373;28;20073;-71
2021/08/16 08:04:41;;;;;;;1.33;0.70;;;34.40;88.50;;;;;;4162214;28;20069;-73
2021/08/16 08:07:01;;;;;;;3.13;0.82;;;34.40;87.30;;;;;;4156877;28;20103;-71
2021/08/16 08:09:08;;;;;;;4.18;3.10;;;34.50;88.10;;;;;;4158686;28;20045;-70
2021/08/16 08:11:18;;;;;;;7.18;5.25;;;34.50;86.60;;;;;;4160881;28;20381;-74
2021/08/16 08:13:23;;;;;;;17.23;10.73;;;34.50;85.50;;;;;;4145515;28;20125;-71
2021/08/16 08:15:37;;;;;;;6.72;4.40;;;34.50;86.60;;;;;;4161928;28;20056;-71
2021/08/16 08:17:46;;;;;;;6.45;4.30;;;34.40;86.10;;;;;;4115240;28;20035;-69
2021/08/16 08:20:00;;;;;;;2.60;1.55;;;34.40;87.40;;;;;;4135723;28;20064;-70
2021/08/16 08:22:16;;;;;;;2.80;1.30;;;34.40;86.80;;;;;;4161271;28;20543;-71
2021/08/16 08:24:28;;;;;;;4.50;0.90;;;34.40;86.60;;;;;;4183443;28;20069;-73
2021/08/16 08:26:36;;;;;;;2.45;0.65;;;34.40;85.80;;;;;;4157723;28;20045;-72
2021/08/16 08:28:44;;;;;;;1.92;0.55;;;34.30;86.50;;;;;;4163753;28;20536;-69
2021/08/16 08:30:57;;;;;;;2.38;0.57;;;34.20;87.40;;;;;;4164088;28;20084;-71
2021/08/16 08:33:07;;;;;;;2.08;0.65;;;34.20;87.60;;;;;;4161265;28;20033;-71
2021/08/16 08:35:11;;;;;;;1.65;0.65;;;34.40;87.90;;;;;;4160031;28;20076;-69
2021/08/16 08:37:19;;;;;;;4.07;1.60;;;34.40;86.40;;;;;;4169811;28;20105;-71
2021/08/16 08:39:41;;;;;;;2.10;1.90;;;34.40;85.60;;;;;;4169049;28;20068;-72
2021/08/16 08:41:49;;;;;;;2.97;1.50;;;34.40;84.20;;;;;;4166210;28;20040;-73
2021/08/16 08:44:04;;;;;;;2.53;1.50;;;34.30;83.60;;;;;;4163367;28;20037;-73
2021/08/16 08:46:22;;;;;;;4.30;0.90;;;34.30;83.10;;;;;;4166548;28;20045;-73
2021/08/16 08:48:50;;;;;;;3.10;0.85;;;34.30;83.50;;;;;;4153344;28;20038;-73
2021/08/16 08:50:55;;;;;;;2.05;0.70;;;34.20;84.60;;;;;;4121461;28;20056;-72
2021/08/16 08:53:03;;;;;;;2.60;1.42;;;34.20;84.70;;;;;;4174711;28;20053;-72
2021/08/16 08:55:22;;;;;;;2.50;1.23;;;34.30;83.80;;;;;;4143433;28;20046;-72
2021/08/16 08:57:43;;;;;;;2.13;0.98;;;34.30;82.60;;;;;;4166326;28;20041;-74
2021/08/16 08:59:55;;;;;;;1.58;0.57;;;34.30;82.80;;;;;;4142325;28;20551;-71
2021/08/16 09:02:02;;;;;;;1.95;0.75;;;34.20;82.20;;;;;;4147130;28;20092;-72
2021/08/16 09:04:10;;;;;;;1.48;0.60;;;34.10;81.50;;;;;;4158968;28;20072;-74
2021/08/16 09:06:30;;;;;;;2.05;0.60;;;34.00;81.50;;;;;;4148923;28;20096;-74
2021/08/16 09:08:51;;;;;;;3.20;0.70;;;34.00;81.30;;;;;;4134569;28;20110;-72
2021/08/16 09:11:13;;;;;;;1.27;0.60;;;34.10;81.30;;;;;;4148883;28;20128;-73
2021/08/16 09:13:29;;;;;;;2.73;0.70;;;34.00;81.90;;;;;;4141648;28;20088;-74
2021/08/16 09:15:50;;;;;;;3.92;1.15;;;33.90;82.60;;;;;;4077473;29;20322;-72
2021/08/16 09:18:26;;;;;;;3.03;0.65;;;33.80;83.80;;;;;;4059666;29;20529;-72
2021/08/16 09:20:46;;;;;;;2.70;0.98;;;33.80;84.40;;;;;;4079994;29;20060;-68
2021/08/16 09:23:07;;;;;;;2.85;0.60;;;33.90;83.80;;;;;;4043902;29;20056;-70
2021/08/16 09:25:18;;;;;;;1.55;0.70;;;33.90;82.90;;;;;;4045585;29;20049;-72
2021/08/16 09:27:56;;;;;;;2.65;0.82;;;34.00;82.80;;;;;;4004520;29;20077;-71
2021/08/16 09:30:04;;;;;;;5.63;1.05;;;34.00;83.80;;;;;;4001066;29;20062;-72
2021/08/16 09:32:31;;;;;;;1.48;0.50;;;34.00;83.20;;;;;;3985267;29;20414;-71
2021/08/16 09:34:58;;;;;;;;;;;;;;;;;;;;;
2021/08/16 09:37:25;;;;;;;1.70;0.88;;;34.00;83.50;;;;;;3996068;29;20259;-72
2021/08/16 09:39:36;;;;;;;0.88;0.40;;;33.90;83.70;;;;;;3999793;29;20139;-73
2021/08/16 09:41:45;;;;;;;;;;;33.80;84.10;;;;;;4067481;29;20151;-72
2021/08/16 09:44:05;;;;;;;1.73;0.60;;;33.80;84.50;;;;;;4063385;29;20402;-73
2021/08/16 09:46:28;;;;;;;3.17;1.08;;;33.70;85.10;;;;;;4131077;28;20422;-72
2021/08/16 09:49:05;;;;;;;3.45;1.00;;;33.60;85.30;;;;;;4127272;28;20051;-73
2021/08/16 09:51:29;;;;;;;6.00;1.00;;;33.50;86.10;;;;;;4141783;28;20122;-70
2021/08/16 09:53:51;;;;;;;2.15;1.08;;;33.40;86.50;;;;;;4147733;28;20076;-71
2021/08/16 09:56:08;;;;;;;5.93;1.00;;;33.40;86.50;;;;;;4172467;28;20164;-70
2021/08/16 09:58:14;;;;;;;1.98;1.33;;;33.30;86.70;;;;;;4161993;28;20096;-71
2021/08/16 10:00:31;;;;;;;3.65;1.40;;;33.30;86.80;;;;;;4159578;28;20049;-71
2021/08/16 10:02:40;;;;;;;4.28;1.50;;;33.20;86.10;;;;;;4150879;28;20065;-70
2021/08/16 10:04:50;;;;;;;3.08;1.15;;;33.20;86.40;;;;;;4161415;28;20582;-69
2021/08/16 10:07:12;;;;;;;2.67;1.00;;;33.10;86.20;;;;;;4159280;28;20523;-72
2021/08/16 10:09:45;;;;;;;4.15;1.20;;;33.10;86.30;;;;;;4165650;28;20125;-72
2021/08/16 10:11:54;;;;;;;12.57;1.70;;;33.00;86.40;;;;;;4166703;28;20052;-75
2021/08/16 10:14:08;;;;;;;4.72;1.40;;;33.00;86.00;;;;;;4166718;28;20058;-76
2021/08/16 10:16:14;;;;;;;3.58;1.45;;;33.00;85.60;;;;;;4156943;28;20046;-74
2021/08/16 10:18:35;;;;;;;5.05;1.92;;;32.90;86.50;;;;;;4130523;28;20444;-75
2021/08/16 10:20:46;;;;;;;5.60;1.95;;;32.90;86.40;;;;;;4160987;28;20054;-72
2021/08/16 10:22:51;;;;;;;13.85;8.75;;;32.80;86.80;;;;;;4160906;28;20046;-71
2021/08/16 10:24:56;;;;;;;24.60;15.77;;;32.90;87.40;;;;;;4166179;28;20801;-69
2021/08/16 10:27:03;;;;;;;15.07;10.43;;;32.60;87.70;;;;;;4147372;28;20052;-72
2021/08/16 10:29:13;;;;;;;7.65;5.80;;;32.50;86.90;;;;;;4148477;28;20050;-72
2021/08/16 10:31:34;;;;;;;6.78;5.55;;;32.30;86.60;;;;;;4149743;28;20049;-73
2021/08/16 10:33:45;;;;;;;10.18;3.85;;;32.30;87.40;;;;;;4164350;28;20045;-72
2021/08/16 10:35:53;;;;;;;23.77;17.55;;;32.30;87.60;;;;;;4162600;28;20099;-70
2021/08/16 10:38:18;;;;;;;18.55;11.55;;;32.30;88.70;;;;;;4163983;28;20068;-71
2021/08/16 10:40:25;;;;;;;33.75;23.77;;;32.20;89.60;;;;;;4129001;28;20314;-71
2021/08/16 10:42:37;;;;;;;16.73;10.30;;;32.10;90.50;;;;;;4164474;28;20033;-71
2021/08/16 10:44:46;;;;;;;20.50;9.63;;;31.90;91.40;;;;;;4162574;28;20049;-71
2021/08/16 10:47:01;;;;;;;7.28;3.67;;;32.00;91.70;;;;;;4164443;28;20045;-70
2021/08/16 10:49:07;;;;;;;6.35;2.88;;;32.00;91.30;;;;;;4163777;28;20046;-70
2021/08/16 10:51:12;;;;;;;7.75;2.30;;;32.10;91.20;;;;;;4165355;28;20099;-73
2021/08/16 10:53:17;;;;;;;6.40;2.63;;;32.10;91.00;;;;;;4162067;28;20054;-72
2021/08/16 10:55:28;;;;;;;4.80;1.80;;;32.10;90.70;;;;;;4164407;28;20959;-70
2021/08/16 10:57:34;;;;;;;3.80;2.05;;;32.10;90.70;;;;;;4164849;28;20408;-69
2021/08/16 10:59:43;;;;;;;4.15;2.40;;;32.00;90.70;;;;;;4163558;28;20049;-72
2021/08/16 11:01:48;;;;;;;5.43;1.85;;;32.00;91.20;;;;;;4160945;28;20053;-71
2021/08/16 11:04:05;;;;;;;3.13;1.48;;;32.00;91.10;;;;;;4160478;28;20416;-71
2021/08/16 11:06:10;;;;;;;6.15;1.45;;;32.00;91.20;;;;;;4162471;28;20068;-70
2021/08/16 11:08:14;;;;;;;4.00;1.80;;;31.90;91.30;;;;;;4158398;28;20130;-71
2021/08/16 11:10:19;;;;;;;4.60;1.80;;;31.90;91.50;;;;;;4158770;28;20091;-71
2021/08/16 11:12:34;;;;;;;6.95;1.63;;;31.90;91.70;;;;;;4159439;28;20038;-71
2021/08/16 11:14:41;;;;;;;7.97;2.00;;;31.90;91.80;;;;;;4163152;28;20045;-69
2021/08/16 11:16:49;;;;;;;4.57;1.88;;;31.90;92.00;;;;;;4165099;28;20053;-71
2021/08/16 11:18:57;;;;;;;2.63;1.25;;;31.90;92.10;;;;;;4148461;28;20050;-71
2021/08/16 11:21:04;;;;;;;6.30;1.40;;;31.80;92.20;;;;;;4160507;28;20136;-72
2021/08/16 11:23:12;;;;;;;3.50;1.75;;;31.80;92.70;;;;;;4162183;28;20084;-71
2021/08/16 11:25:17;;;;;;;6.80;1.67;;;31.80;92.40;;;;;;4160016;28;20049;-72
2021/08/16 11:27:27;;;;;;;5.07;1.38;;;31.70;92.60;;;;;;4158970;28;20045;-73
2021/08/16 11:29:37;;;;;;;4.47;1.30;;;31.70;92.80;;;;;;4162656;28;20452;-71
2021/08/16 11:31:42;;;;;;;4.88;1.40;;;31.70;93.00;;;;;;4160495;28;20046;-72
2021/08/16 11:33:47;;;;;;;5.60;1.50;;;31.60;93.10;;;;;;4158665;28;20030;-71
2021/08/16 11:36:04;;;;;;;5.85;1.48;;;31.60;93.10;;;;;;4181280;28;20041;-73
2021/08/16 11:38:15;;;;;;;6.05;1.98;;;31.60;93.10;;;;;;4162445;28;20069;-71
2021/08/16 11:40:23;;;;;;;3.72;1.40;;;31.60;93.20;;;;;;4174572;28;20056;-74
2021/08/16 11:42:40;;;;;;;6.55;1.55;;;31.60;93.80;;;;;;4160728;28;20562;-71